createdAt,value
2023-05-19T00:00:17.214Z,42.39
2023-05-19T00:01:17.215Z,42.46
2023-05-19T00:02:17.249Z,42.32
2023-05-19T00:03:17.371Z,42.23
2023-05-19T00:04:17.210Z,42.24
2023-05-19T00:05:17.198Z,42.38
2023-05-19T00:06:17.215Z,42.54
2023-05-19T00:07:17.180Z,42.25
2023-05-19T00:08:17.175Z,42.41
2023-05-19T00:09:17.180Z,42.42
2023-05-19T00:10:17.181Z,42.46
2023-05-19T00:11:17.185Z,42.50
2023-05-19T00:12:17.178Z,42.37
2023-05-19T00:13:17.181Z,42.47
2023-05-19T00:14:17.176Z,42.51
2023-05-19T00:15:17.161Z,42.41
2023-05-19T00:16:17.214Z,42.56
2023-05-19T00:17:17.164Z,42.36
2023-05-19T00:18:17.173Z,42.40
2023-05-19T00:19:17.314Z,42.34
2023-05-19T00:20:17.160Z,42.29
2023-05-19T00:21:17.162Z,42.43
2023-05-19T00:22:17.187Z,42.39
2023-05-19T00:23:17.156Z,42.47
2023-05-19T00:24:17.144Z,42.49
2023-05-19T00:25:17.151Z,42.46
2023-05-19T00:26:17.139Z,42.39
2023-05-19T00:27:17.144Z,42.37
2023-05-19T00:28:17.153Z,42.56
2023-05-19T00:29:17.136Z,42.52
2023-05-19T00:30:17.128Z,42.39
2023-05-19T00:31:17.211Z,42.42
2023-05-19T00:32:17.159Z,42.47
2023-05-19T00:33:17.120Z,42.50
2023-05-19T00:34:17.128Z,42.32
2023-05-19T00:35:17.118Z,42.34
2023-05-19T00:36:17.127Z,42.26
2023-05-19T00:37:17.108Z,42.40
2023-05-19T00:38:17.103Z,42.50
2023-05-19T00:39:17.103Z,42.37
2023-05-19T00:40:17.093Z,42.58
2023-05-19T00:41:17.098Z,42.45
2023-05-19T00:42:17.086Z,42.41
2023-05-19T00:43:17.086Z,42.51
2023-05-19T00:44:17.081Z,42.37
2023-05-19T00:45:17.087Z,42.37
2023-05-19T00:46:17.122Z,42.43
2023-05-19T00:47:17.084Z,42.62
2023-05-19T00:48:17.063Z,42.50
2023-05-19T00:49:17.087Z,42.54
2023-05-19T00:50:17.074Z,42.70
2023-05-19T00:51:17.264Z,42.69
2023-05-19T00:52:17.043Z,42.51
2023-05-19T00:53:17.038Z,42.46
2023-05-19T00:54:17.039Z,42.71
2023-05-19T00:55:17.038Z,42.69
2023-05-19T00:56:17.096Z,42.51
2023-05-19T00:57:17.022Z,42.42
2023-05-19T00:58:17.043Z,42.48
2023-05-19T00:59:17.016Z,42.43
2023-05-19T01:00:17.020Z,42.55
2023-05-19T01:01:17.190Z,42.44
2023-05-19T01:02:17.008Z,42.56
2023-05-19T01:03:17.102Z,42.48
2023-05-19T01:04:16.993Z,42.45
2023-05-19T01:05:17.026Z,42.52
2023-05-19T01:06:16.995Z,42.51
2023-05-19T01:07:16.974Z,42.58
2023-05-19T01:08:16.969Z,42.48
2023-05-19T01:09:16.963Z,42.52
2023-05-19T01:10:16.978Z,42.61
2023-05-19T01:11:16.965Z,42.51
2023-05-19T01:12:17.021Z,42.62
2023-05-19T01:13:16.953Z,42.53
2023-05-19T01:14:16.947Z,42.65
2023-05-19T01:15:16.944Z,42.77
2023-05-19T01:16:16.968Z,42.49
2023-05-19T01:17:16.935Z,42.48
2023-05-19T01:18:16.942Z,42.40
2023-05-19T01:19:16.941Z,42.53
2023-05-19T01:20:16.938Z,42.79
2023-05-19T01:21:16.925Z,42.55
2023-05-19T01:22:16.929Z,42.57
2023-05-19T01:23:16.916Z,42.58
2023-05-19T01:24:16.920Z,42.61
2023-05-19T01:25:16.916Z,42.66
2023-05-19T01:26:16.918Z,42.62
2023-05-19T01:27:16.913Z,42.67
2023-05-19T01:28:16.920Z,42.44
2023-05-19T01:29:16.907Z,42.57
2023-05-19T01:30:16.897Z,42.47
2023-05-19T01:31:16.953Z,42.57
2023-05-19T01:32:16.979Z,42.53
2023-05-19T01:33:16.914Z,42.66
2023-05-19T01:34:16.901Z,42.64
2023-05-19T01:35:16.922Z,42.56
2023-05-19T01:36:16.898Z,42.67
2023-05-19T01:37:16.898Z,42.72
2023-05-19T01:38:16.922Z,42.71
2023-05-19T01:39:16.905Z,42.47
2023-05-19T01:40:16.922Z,42.58
2023-05-19T01:41:16.904Z,42.45
2023-05-19T01:42:16.894Z,42.60
2023-05-19T01:43:16.916Z,42.59
2023-05-19T01:44:16.895Z,42.74
2023-05-19T01:45:16.887Z,42.60
2023-05-19T01:46:16.921Z,42.58
2023-05-19T01:47:16.888Z,42.84
2023-05-19T01:48:16.886Z,42.78
2023-05-19T01:49:16.889Z,42.71
2023-05-19T01:50:16.875Z,42.66
2023-05-19T01:51:16.875Z,42.72
2023-05-19T01:52:16.862Z,42.71
2023-05-19T01:53:16.867Z,42.69
2023-05-19T01:54:16.868Z,42.64
2023-05-19T01:55:16.870Z,42.83
2023-05-19T01:56:16.871Z,42.91
2023-05-19T01:57:16.859Z,42.73
2023-05-19T01:58:16.889Z,42.86
2023-05-19T01:59:16.854Z,42.77
2023-05-19T02:00:16.945Z,42.67
2023-05-19T02:01:16.870Z,42.81
2023-05-19T02:02:16.832Z,42.61
2023-05-19T02:03:16.833Z,42.78
2023-05-19T02:04:16.824Z,42.59
2023-05-19T02:05:16.813Z,42.77
2023-05-19T02:06:16.822Z,42.64
2023-05-19T02:07:16.810Z,42.68
2023-05-19T02:08:16.800Z,42.61
2023-05-19T02:09:16.824Z,42.74
2023-05-19T02:10:16.786Z,42.74
2023-05-19T02:11:16.795Z,42.70
2023-05-19T02:12:16.784Z,42.75
2023-05-19T02:13:16.813Z,42.70
2023-05-19T02:14:16.791Z,42.87
2023-05-19T02:15:16.783Z,42.74
2023-05-19T02:16:16.819Z,42.84
2023-05-19T02:17:16.812Z,42.85
2023-05-19T02:18:16.801Z,42.53
2023-05-19T02:19:16.797Z,42.62
2023-05-19T02:20:16.784Z,42.69
2023-05-19T02:21:16.794Z,42.78
2023-05-19T02:22:16.779Z,42.83
2023-05-19T02:23:16.774Z,42.74
2023-05-19T02:24:16.760Z,42.90
2023-05-19T02:25:16.776Z,42.81
2023-05-19T02:26:16.760Z,42.72
2023-05-19T02:27:16.772Z,42.76
2023-05-19T02:28:16.749Z,42.63
2023-05-19T02:29:16.758Z,42.96
2023-05-19T02:30:16.748Z,42.85
2023-05-19T02:31:16.746Z,42.77
2023-05-19T02:32:16.859Z,42.88
2023-05-19T02:33:16.760Z,42.76
2023-05-19T02:34:16.764Z,42.80
2023-05-19T02:35:16.725Z,42.64
2023-05-19T02:36:16.747Z,42.77
2023-05-19T02:37:16.826Z,42.66
2023-05-19T02:38:16.696Z,42.71
2023-05-19T02:39:16.705Z,43.00
2023-05-19T02:40:16.713Z,42.79
2023-05-19T02:41:16.699Z,42.96
2023-05-19T02:42:16.692Z,42.76
2023-05-19T02:43:16.716Z,42.71
2023-05-19T02:44:16.684Z,42.66
2023-05-19T02:45:16.676Z,42.72
2023-05-19T02:46:16.706Z,43.06
2023-05-19T02:47:16.672Z,42.82
2023-05-19T02:48:16.679Z,42.78
2023-05-19T02:49:16.666Z,42.74
2023-05-19T02:50:16.664Z,43.24
2023-05-19T02:51:16.658Z,42.88
2023-05-19T02:52:16.661Z,42.87
2023-05-19T02:53:16.651Z,42.67
2023-05-19T02:54:16.644Z,42.81
2023-05-19T02:55:16.654Z,42.73
2023-05-19T02:56:16.661Z,42.73
2023-05-19T02:57:16.618Z,42.83
2023-05-19T02:58:16.627Z,42.79
2023-05-19T02:59:16.620Z,42.77
2023-05-19T03:00:16.624Z,42.79
2023-05-19T03:01:16.682Z,42.69
2023-05-19T03:02:16.627Z,42.76
2023-05-19T03:03:16.683Z,42.75
2023-05-19T03:04:16.612Z,42.72
2023-05-19T03:05:16.625Z,42.91
2023-05-19T03:06:16.625Z,42.80
2023-05-19T03:07:16.612Z,43.01
2023-05-19T03:08:16.615Z,42.87
2023-05-19T03:09:16.617Z,42.87
2023-05-19T03:10:16.628Z,42.74
2023-05-19T03:11:16.635Z,42.71
2023-05-19T03:12:16.627Z,42.77
2023-05-19T03:13:16.646Z,42.78
2023-05-19T03:14:16.627Z,42.77
2023-05-19T03:15:16.636Z,42.83
2023-05-19T03:16:16.688Z,42.88
2023-05-19T03:17:16.672Z,42.95
2023-05-19T03:18:16.690Z,42.78
2023-05-19T03:19:16.776Z,43.14
2023-05-19T03:20:16.617Z,42.77
2023-05-19T03:21:16.624Z,42.67
2023-05-19T03:22:16.621Z,42.79
2023-05-19T03:23:16.657Z,42.68
2023-05-19T03:24:16.620Z,42.75
2023-05-19T03:25:16.620Z,42.74
2023-05-19T03:26:16.611Z,42.80
2023-05-19T03:27:16.623Z,42.84
2023-05-19T03:28:16.601Z,42.81
2023-05-19T03:29:16.614Z,42.94
2023-05-19T03:30:16.602Z,42.89
2023-05-19T03:31:16.601Z,42.71
2023-05-19T03:32:16.655Z,42.84
2023-05-19T03:33:16.729Z,42.98
2023-05-19T03:34:16.617Z,42.82
2023-05-19T03:35:16.611Z,43.00
2023-05-19T03:36:16.612Z,42.73
2023-05-19T03:37:16.616Z,42.71
2023-05-19T03:38:16.620Z,42.63
2023-05-19T03:39:16.642Z,42.56
2023-05-19T03:40:16.626Z,42.75
2023-05-19T03:41:16.644Z,42.79
2023-05-19T03:42:16.641Z,42.74
2023-05-19T03:43:16.641Z,42.72
2023-05-19T03:44:16.640Z,42.90
2023-05-19T03:45:16.647Z,42.77
2023-05-19T03:46:16.706Z,42.76
2023-05-19T03:47:16.651Z,42.74
2023-05-19T03:48:17.935Z,42.67
2023-05-19T03:49:16.658Z,42.65
2023-05-19T03:50:16.649Z,42.83
2023-05-19T03:51:16.657Z,42.78
2023-05-19T03:52:16.659Z,42.70
2023-05-19T03:53:16.664Z,42.72
2023-05-19T03:54:16.668Z,42.74
2023-05-19T03:55:16.668Z,42.68
2023-05-19T03:56:16.697Z,42.68
2023-05-19T03:57:16.730Z,42.72
2023-05-19T03:58:16.689Z,42.80
2023-05-19T03:59:16.668Z,42.94
2023-05-19T04:00:16.677Z,43.02
2023-05-19T04:01:16.691Z,43.25
2023-05-19T04:02:17.040Z,42.90
2023-05-19T04:03:16.765Z,43.01
2023-05-19T04:04:16.729Z,42.72
2023-05-19T04:05:16.712Z,42.71
2023-05-19T04:06:16.723Z,42.77
2023-05-19T04:07:16.721Z,42.88
2023-05-19T04:08:16.742Z,42.78
2023-05-19T04:09:16.747Z,42.58
2023-05-19T04:10:16.738Z,42.76
2023-05-19T04:11:16.732Z,42.80
2023-05-19T04:12:16.745Z,42.74
2023-05-19T04:13:16.736Z,42.66
2023-05-19T04:14:16.747Z,42.68
2023-05-19T04:15:16.750Z,42.68
2023-05-19T04:16:16.834Z,42.86
2023-05-19T04:17:16.765Z,42.76
2023-05-19T04:18:16.761Z,42.94
2023-05-19T04:19:16.775Z,42.65
2023-05-19T04:20:16.757Z,42.66
2023-05-19T04:21:16.769Z,42.64
2023-05-19T04:22:16.780Z,42.57
2023-05-19T04:23:16.793Z,42.54
2023-05-19T04:24:16.803Z,42.69
2023-05-19T04:25:16.791Z,42.77
2023-05-19T04:26:16.804Z,42.70
2023-05-19T04:27:16.817Z,42.83
2023-05-19T04:28:16.819Z,42.75
2023-05-19T04:29:16.808Z,42.85
2023-05-19T04:30:18.467Z,42.90
2023-05-19T04:31:16.856Z,42.72
2023-05-19T04:32:16.821Z,42.85
2023-05-19T04:33:16.828Z,42.74
2023-05-19T04:34:16.832Z,42.74
2023-05-19T04:35:16.829Z,42.79
2023-05-19T04:36:16.843Z,42.83
2023-05-19T04:37:16.910Z,42.65
2023-05-19T04:38:16.872Z,42.79
2023-05-19T04:39:16.845Z,42.93
2023-05-19T04:40:16.843Z,42.76
2023-05-19T04:41:16.850Z,42.97
2023-05-19T04:42:16.841Z,42.84
2023-05-19T04:43:16.839Z,42.52
2023-05-19T04:44:16.856Z,42.51
2023-05-19T04:45:16.840Z,42.91
2023-05-19T04:46:16.890Z,42.69
2023-05-19T04:47:16.827Z,42.66
2023-05-19T04:48:16.824Z,42.56
2023-05-19T04:49:16.829Z,42.54
2023-05-19T04:50:16.853Z,42.51
2023-05-19T04:51:16.815Z,42.49
2023-05-19T04:52:16.802Z,42.60
2023-05-19T04:53:16.799Z,42.54
2023-05-19T04:54:16.776Z,42.78
2023-05-19T04:55:16.782Z,43.19
2023-05-19T04:56:16.776Z,42.77
2023-05-19T04:57:16.784Z,42.65
2023-05-19T04:58:16.775Z,42.92
2023-05-19T04:59:16.782Z,42.83
2023-05-19T05:00:16.826Z,42.65
2023-05-19T05:01:16.863Z,42.82
2023-05-19T05:02:16.862Z,43.02
2023-05-19T05:03:16.947Z,42.92
2023-05-19T05:04:16.861Z,43.22
2023-05-19T05:05:16.865Z,42.79
2023-05-19T05:06:16.889Z,42.70
2023-05-19T05:07:16.893Z,43.16
2023-05-19T05:08:16.898Z,43.08
2023-05-19T05:09:16.926Z,42.82
2023-05-19T05:10:16.973Z,42.88
2023-05-19T05:11:16.964Z,42.77
2023-05-19T05:12:16.968Z,43.16
2023-05-19T05:13:16.974Z,42.60
2023-05-19T05:14:16.969Z,42.96
2023-05-19T05:15:16.972Z,43.01
2023-05-19T05:16:17.045Z,43.02
2023-05-19T05:17:17.011Z,42.70
2023-05-19T05:18:17.015Z,42.80
2023-05-19T05:19:17.043Z,42.65
2023-05-19T05:20:17.030Z,42.71
2023-05-19T05:21:17.040Z,42.72
2023-05-19T05:22:17.051Z,42.70
2023-05-19T05:23:17.055Z,42.63
2023-05-19T05:24:17.067Z,42.67
2023-05-19T05:25:17.105Z,42.74
2023-05-19T05:26:17.110Z,43.03
2023-05-19T05:27:17.123Z,43.11
2023-05-19T05:28:17.220Z,43.13
2023-05-19T05:29:17.201Z,43.19
2023-05-19T05:30:17.215Z,43.18
2023-05-19T05:31:17.247Z,42.89
2023-05-19T05:32:17.304Z,42.98
2023-05-19T05:33:17.388Z,42.85
2023-05-19T05:34:17.295Z,42.57
2023-05-19T05:35:17.326Z,42.57
2023-05-19T05:36:17.385Z,42.56
2023-05-19T05:37:17.410Z,42.99
2023-05-19T05:38:17.446Z,42.69
2023-05-19T05:39:17.526Z,42.41
2023-05-19T05:40:17.552Z,42.41
2023-05-19T05:41:17.662Z,42.57
2023-05-19T05:42:17.688Z,42.18
2023-05-19T05:43:17.755Z,42.14
2023-05-19T05:44:17.805Z,42.11
2023-05-19T05:45:17.864Z,42.37
2023-05-19T05:46:17.916Z,42.69
2023-05-19T05:47:17.995Z,42.65
2023-05-19T05:48:18.052Z,42.51
2023-05-19T05:49:18.169Z,42.43
2023-05-19T05:50:18.187Z,42.55
2023-05-19T05:51:18.263Z,42.84
2023-05-19T05:52:18.287Z,42.45
2023-05-19T05:53:18.347Z,42.62
2023-05-19T05:54:18.426Z,42.49
2023-05-19T05:55:18.467Z,42.61
2023-05-19T05:56:18.530Z,42.58
2023-05-19T05:57:18.598Z,42.65
2023-05-19T05:58:18.639Z,42.54
2023-05-19T05:59:18.712Z,42.62
2023-05-19T06:00:18.784Z,42.61
2023-05-19T06:01:18.860Z,42.52
2023-05-19T06:02:18.940Z,42.84
2023-05-19T06:03:19.084Z,42.97
2023-05-19T06:04:19.042Z,42.82
2023-05-19T06:05:19.142Z,43.13
2023-05-19T06:06:19.179Z,43.20
2023-05-19T06:07:19.241Z,42.83
2023-05-19T06:08:19.284Z,43.04
2023-05-19T06:09:19.327Z,43.16
2023-05-19T06:10:19.400Z,43.39
2023-05-19T06:11:19.462Z,42.99
2023-05-19T06:12:19.521Z,43.14
2023-05-19T06:13:19.616Z,43.11
2023-05-19T06:14:19.637Z,42.83
2023-05-19T06:15:19.706Z,43.12
2023-05-19T06:16:19.815Z,42.73
2023-05-19T06:17:19.826Z,42.71
2023-05-19T06:18:19.895Z,42.66
2023-05-19T06:19:20.005Z,42.85
2023-05-19T06:20:20.018Z,42.90
2023-05-19T06:21:20.069Z,42.95
2023-05-19T06:22:20.114Z,42.79
2023-05-19T06:23:20.198Z,42.81
2023-05-19T06:24:20.244Z,42.57
2023-05-19T06:25:20.319Z,42.37
2023-05-19T06:26:20.366Z,42.29
2023-05-19T06:27:20.419Z,42.28
2023-05-19T06:28:20.603Z,42.35
2023-05-19T06:29:20.537Z,42.61
2023-05-19T06:30:20.625Z,42.51
2023-05-19T06:31:20.695Z,42.78
2023-05-19T06:32:20.731Z,42.76
2023-05-19T06:33:20.779Z,42.65
2023-05-19T06:34:20.846Z,42.55
2023-05-19T06:35:20.887Z,42.63
2023-05-19T06:36:20.961Z,42.54
2023-05-19T06:37:21.021Z,42.57
2023-05-19T06:38:21.084Z,42.94
2023-05-19T06:39:21.136Z,42.86
2023-05-19T06:40:21.207Z,42.76
2023-05-19T06:41:21.252Z,42.63
2023-05-19T06:42:21.302Z,42.46
2023-05-19T06:43:21.370Z,42.32
2023-05-19T06:44:21.414Z,42.30
2023-05-19T06:45:21.474Z,42.24
2023-05-19T06:46:21.586Z,42.22
2023-05-19T06:47:21.597Z,42.18
2023-05-19T06:48:21.629Z,42.17
2023-05-19T06:49:21.690Z,42.16
2023-05-19T06:50:21.761Z,42.27
2023-05-19T06:51:21.913Z,42.44
2023-05-19T06:52:21.869Z,42.37
2023-05-19T06:53:21.907Z,42.49
2023-05-19T06:54:21.975Z,42.63
2023-05-19T06:55:22.031Z,42.67
2023-05-19T06:56:22.114Z,42.58
2023-05-19T06:57:22.123Z,42.71
2023-05-19T06:58:22.187Z,42.63
2023-05-19T06:59:22.247Z,42.50
2023-05-19T07:00:30.595Z,42.49
2023-05-19T07:01:23.319Z,42.53
2023-05-19T07:02:22.319Z,42.44
2023-05-19T07:03:22.308Z,42.43
2023-05-19T07:04:22.328Z,42.61
2023-05-19T07:05:22.259Z,42.53
2023-05-19T07:06:22.286Z,42.51
2023-05-19T07:07:22.253Z,42.32
2023-05-19T07:08:22.238Z,42.39
2023-05-19T07:09:22.223Z,42.33
2023-05-19T07:10:22.224Z,42.45
2023-05-19T07:11:22.222Z,42.43
2023-05-19T07:12:22.370Z,42.82
2023-05-19T07:13:22.304Z,42.57
2023-05-19T07:14:22.388Z,42.69
2023-05-19T07:15:22.459Z,42.74
2023-05-19T07:16:22.542Z,42.85
2023-05-19T07:17:22.636Z,42.72
2023-05-19T07:18:22.578Z,42.68
2023-05-19T07:19:22.784Z,42.54
2023-05-19T07:20:22.684Z,42.75
2023-05-19T07:21:22.724Z,42.76
2023-05-19T07:22:22.788Z,42.72
2023-05-19T07:23:22.830Z,42.54
2023-05-19T07:24:22.909Z,42.51
2023-05-19T07:25:22.944Z,42.71
2023-05-19T07:26:23.004Z,42.89
2023-05-19T07:27:23.044Z,42.70
2023-05-19T07:28:23.110Z,42.75
2023-05-19T07:29:23.145Z,42.74
2023-05-19T07:30:23.187Z,42.75
2023-05-19T07:31:23.323Z,42.80
2023-05-19T07:32:23.468Z,42.61
2023-05-19T07:33:23.695Z,42.66
2023-05-19T07:34:23.399Z,42.71
2023-05-19T07:35:23.453Z,42.69
2023-05-19T07:36:23.489Z,42.84
2023-05-19T07:37:23.562Z,42.85
2023-05-19T07:38:23.601Z,42.92
2023-05-19T07:39:23.717Z,42.93
2023-05-19T07:40:23.706Z,42.98
2023-05-19T07:41:23.744Z,42.85
2023-05-19T07:42:23.815Z,42.77
2023-05-19T07:43:23.849Z,42.89
2023-05-19T07:44:23.910Z,42.72
2023-05-19T07:45:23.964Z,42.75
2023-05-19T07:46:24.044Z,42.71
2023-05-19T07:47:24.053Z,42.98
2023-05-19T07:48:24.102Z,42.87
2023-05-19T07:49:24.158Z,42.73
2023-05-19T07:50:24.245Z,42.74
2023-05-19T07:51:24.267Z,42.84
2023-05-19T07:52:24.341Z,42.82
2023-05-19T07:53:24.387Z,42.88
2023-05-19T07:54:24.458Z,42.84
2023-05-19T07:55:24.472Z,42.45
2023-05-19T07:56:24.512Z,42.63
2023-05-19T07:57:24.654Z,42.75
2023-05-19T07:58:24.617Z,42.60
2023-05-19T07:59:24.673Z,42.85
2023-05-19T08:00:24.799Z,43.07
2023-05-19T08:01:24.809Z,43.07
2023-05-19T08:02:24.950Z,43.32
2023-05-19T08:03:25.027Z,43.37
2023-05-19T08:04:24.937Z,43.14
2023-05-19T08:05:24.968Z,43.14
2023-05-19T08:06:25.010Z,43.20
2023-05-19T08:07:25.079Z,43.06
2023-05-19T08:08:25.118Z,43.49
2023-05-19T08:09:25.177Z,43.75
2023-05-19T08:10:25.261Z,43.62
2023-05-19T08:11:25.282Z,43.78
2023-05-19T08:12:25.354Z,43.42
2023-05-19T08:13:25.574Z,44.07
2023-05-19T08:14:25.431Z,44.42
2023-05-19T08:15:25.511Z,44.16
2023-05-19T08:16:25.673Z,44.14
2023-05-19T08:17:25.616Z,44.02
2023-05-19T08:18:25.648Z,44.14
2023-05-19T08:19:25.744Z,44.34
2023-05-19T08:20:25.766Z,44.09
2023-05-19T08:21:25.778Z,43.82
2023-05-19T08:22:25.851Z,43.61
2023-05-19T08:23:25.887Z,43.79
2023-05-19T08:24:25.934Z,44.01
2023-05-19T08:25:26.009Z,43.37
2023-05-19T08:26:26.030Z,43.24
2023-05-19T08:27:26.085Z,43.30
2023-05-19T08:28:26.142Z,43.16
2023-05-19T08:29:26.200Z,43.28
2023-05-19T08:30:26.244Z,43.18
2023-05-19T08:31:26.333Z,43.31
2023-05-19T08:32:26.369Z,43.28
2023-05-19T08:33:26.386Z,43.10
2023-05-19T08:34:26.427Z,43.04
2023-05-19T08:35:26.511Z,43.05
2023-05-19T08:36:26.529Z,43.25
2023-05-19T08:37:26.591Z,43.56
2023-05-19T08:38:26.646Z,43.53
2023-05-19T08:39:26.687Z,43.46
2023-05-19T08:40:26.729Z,43.39
2023-05-19T08:41:26.840Z,43.24
2023-05-19T08:42:26.826Z,43.33
2023-05-19T08:43:26.867Z,43.27
2023-05-19T08:44:26.909Z,43.21
2023-05-19T08:45:26.993Z,43.34
2023-05-19T08:46:27.066Z,43.26
2023-05-19T08:47:27.088Z,43.29
2023-05-19T08:48:27.110Z,43.05
2023-05-19T08:49:27.149Z,43.29
2023-05-19T08:50:27.205Z,43.26
2023-05-19T08:51:27.247Z,43.18
2023-05-19T08:52:27.309Z,43.38
2023-05-19T08:53:33.668Z,43.57
2023-05-19T08:54:28.332Z,43.46
2023-05-19T08:55:27.337Z,43.63
2023-05-19T08:56:27.309Z,43.30
2023-05-19T08:57:27.306Z,43.53
2023-05-19T08:58:28.721Z,43.16
2023-05-19T08:59:27.302Z,43.14
2023-05-19T09:00:27.338Z,43.37
2023-05-19T09:01:27.310Z,43.37
2023-05-19T09:02:27.326Z,43.68
2023-05-19T09:03:27.354Z,43.32
2023-05-19T09:04:28.402Z,43.64
2023-05-19T09:05:27.477Z,43.49
2023-05-19T09:06:27.473Z,43.22
2023-05-19T09:07:27.523Z,43.44
2023-05-19T09:08:27.551Z,43.89
2023-05-19T09:09:27.590Z,43.50
2023-05-19T09:10:29.193Z,43.64
2023-05-19T09:11:27.670Z,43.54
2023-05-19T09:12:27.705Z,43.69
2023-05-19T09:13:27.756Z,43.67
2023-05-19T09:14:27.775Z,43.42
2023-05-19T09:15:27.817Z,43.62
2023-05-19T09:16:29.956Z,43.85
2023-05-19T09:17:27.902Z,43.51
2023-05-19T09:18:27.913Z,43.60
2023-05-19T09:19:27.986Z,43.69
2023-05-19T09:20:28.011Z,43.80
2023-05-19T09:21:28.014Z,43.97
2023-05-19T09:22:28.058Z,44.02
2023-05-19T09:23:28.084Z,43.89
2023-05-19T09:24:28.129Z,44.35
2023-05-19T09:25:28.233Z,44.14
2023-05-19T09:26:28.200Z,44.11
2023-05-19T09:27:28.225Z,43.51
2023-05-19T09:28:28.255Z,43.50
2023-05-19T09:29:28.289Z,43.85
2023-05-19T09:30:28.340Z,43.76
2023-05-19T09:31:28.399Z,43.91
2023-05-19T09:32:28.548Z,43.76
2023-05-19T09:33:28.565Z,43.88
2023-05-19T09:34:28.465Z,43.78
2023-05-19T09:35:28.497Z,43.93
2023-05-19T09:36:28.537Z,43.86
2023-05-19T09:37:28.564Z,44.10
2023-05-19T09:38:28.609Z,43.71
2023-05-19T09:39:28.628Z,43.39
2023-05-19T09:40:28.671Z,43.36
2023-05-19T09:41:28.712Z,43.28
2023-05-19T09:42:28.768Z,43.65
2023-05-19T09:43:28.767Z,43.69
2023-05-19T09:44:28.881Z,43.75
2023-05-19T09:45:28.850Z,43.50
2023-05-19T09:46:28.964Z,43.41
2023-05-19T09:47:28.917Z,43.30
2023-05-19T09:48:28.955Z,43.22
2023-05-19T09:49:29.012Z,43.48
2023-05-19T09:50:28.990Z,43.41
2023-05-19T09:51:29.027Z,43.27
2023-05-19T09:52:29.261Z,43.29
2023-05-19T09:53:29.111Z,43.28
2023-05-19T09:54:29.114Z,43.25
2023-05-19T09:55:29.154Z,43.18
2023-05-19T09:56:29.188Z,43.31
2023-05-19T09:57:29.216Z,43.32
2023-05-19T09:58:29.236Z,43.23
2023-05-19T09:59:32.050Z,43.25
2023-05-19T10:00:29.264Z,43.24
2023-05-19T10:01:29.337Z,43.23
2023-05-19T10:02:29.311Z,43.30
2023-05-19T10:03:29.249Z,43.56
2023-05-19T10:04:29.340Z,43.45
2023-05-19T10:05:29.231Z,43.49
2023-05-19T10:06:29.220Z,43.27
2023-05-19T10:07:29.227Z,43.24
2023-05-19T10:08:29.197Z,43.26
2023-05-19T10:09:29.342Z,43.27
2023-05-19T10:10:29.243Z,43.21
2023-05-19T10:11:29.175Z,43.20
2023-05-19T10:12:29.185Z,43.20
2023-05-19T10:13:29.172Z,43.23
2023-05-19T10:14:29.227Z,43.30
2023-05-19T10:15:29.153Z,43.18
2023-05-19T10:16:29.176Z,43.18
2023-05-19T10:17:29.194Z,43.46
2023-05-19T10:18:29.135Z,43.32
2023-05-19T10:19:29.381Z,43.66
2023-05-19T10:20:29.116Z,43.80
2023-05-19T10:21:29.120Z,43.66
2023-05-19T10:22:29.136Z,43.33
2023-05-19T10:23:29.098Z,43.62
2023-05-19T10:24:29.086Z,43.81
2023-05-19T10:25:29.091Z,43.55
2023-05-19T10:26:29.074Z,43.61
2023-05-19T10:27:29.066Z,43.55
2023-05-19T10:28:29.100Z,43.56
2023-05-19T10:29:29.067Z,43.37
2023-05-19T10:30:29.060Z,43.65
2023-05-19T10:31:29.106Z,43.63
2023-05-19T10:32:29.123Z,43.54
2023-05-19T10:33:29.058Z,43.52
2023-05-19T10:34:29.060Z,43.49
2023-05-19T10:35:29.015Z,43.36
2023-05-19T10:36:29.070Z,43.14
2023-05-19T10:37:29.048Z,43.19
2023-05-19T10:38:29.005Z,43.16
2023-05-19T10:39:28.984Z,43.11
2023-05-19T10:40:28.993Z,43.18
2023-05-19T10:41:28.984Z,43.22
2023-05-19T10:42:28.979Z,43.41
2023-05-19T10:43:28.962Z,43.25
2023-05-19T10:44:28.965Z,43.18
2023-05-19T10:45:28.985Z,43.38
2023-05-19T10:46:29.091Z,43.32
2023-05-19T10:47:29.054Z,43.58
2023-05-19T10:48:29.056Z,43.67
2023-05-19T10:49:29.085Z,43.61
2023-05-19T10:50:29.116Z,43.40
2023-05-19T10:51:29.133Z,43.45
2023-05-19T10:52:29.167Z,43.42
2023-05-19T10:53:29.197Z,43.77
2023-05-19T10:54:29.272Z,43.38
2023-05-19T10:55:29.239Z,43.25
2023-05-19T10:56:29.277Z,43.55
2023-05-19T10:57:29.309Z,43.63
2023-05-19T10:58:29.327Z,43.83
2023-05-19T10:59:29.642Z,43.61
2023-05-19T11:00:29.394Z,43.47
2023-05-19T11:01:29.446Z,43.25
2023-05-19T11:02:29.461Z,43.20
2023-05-19T11:03:30.929Z,43.15
2023-05-19T11:04:29.597Z,43.17
2023-05-19T11:05:29.609Z,43.21
2023-05-19T11:06:29.612Z,43.23
2023-05-19T11:07:29.617Z,43.12
2023-05-19T11:08:29.630Z,43.59
2023-05-19T11:09:39.908Z,43.49
2023-05-19T11:10:30.671Z,43.51
2023-05-19T11:11:29.648Z,43.72
2023-05-19T11:12:29.666Z,43.44
2023-05-19T11:13:29.632Z,43.22
2023-05-19T11:14:29.652Z,43.19
2023-05-19T11:15:29.644Z,43.21
2023-05-19T11:16:29.683Z,43.19
2023-05-19T11:17:29.682Z,43.26
2023-05-19T11:18:29.615Z,43.35
2023-05-19T11:19:29.695Z,43.24
2023-05-19T11:20:29.580Z,43.18
2023-05-19T11:21:29.669Z,43.27
2023-05-19T11:22:29.598Z,43.24
2023-05-19T11:23:29.597Z,43.14
2023-05-19T11:24:29.558Z,43.21
2023-05-19T11:25:29.596Z,43.31
2023-05-19T11:26:29.569Z,43.19
2023-05-19T11:27:29.572Z,43.67
2023-05-19T11:28:29.569Z,43.37
2023-05-19T11:29:29.575Z,43.23
2023-05-19T11:30:29.607Z,43.33
2023-05-19T11:31:29.672Z,43.29
2023-05-19T11:32:29.731Z,43.27
2023-05-19T11:33:29.675Z,43.26
2023-05-19T11:34:29.704Z,43.18
2023-05-19T11:35:29.795Z,43.22
2023-05-19T11:36:29.758Z,43.31
2023-05-19T11:37:29.783Z,43.28
2023-05-19T11:38:29.939Z,43.28
2023-05-19T11:39:29.861Z,43.46
2023-05-19T11:40:29.860Z,43.72
2023-05-19T11:41:29.896Z,43.31
2023-05-19T11:42:29.935Z,43.22
2023-05-19T11:43:29.962Z,43.20
2023-05-19T11:44:29.965Z,43.21
2023-05-19T11:45:30.029Z,43.22
2023-05-19T11:46:30.105Z,43.24
2023-05-19T11:47:32.029Z,43.25
2023-05-19T11:48:31.131Z,43.33
2023-05-19T11:49:30.059Z,43.27
2023-05-19T11:50:30.037Z,43.30
2023-05-19T11:51:30.027Z,43.29
2023-05-19T11:52:30.015Z,43.25
2023-05-19T11:53:30.004Z,43.32
2023-05-19T11:54:29.989Z,43.27
2023-05-19T11:55:30.003Z,43.26
2023-05-19T11:56:29.981Z,43.28
2023-05-19T11:57:29.987Z,43.26
2023-05-19T11:58:29.959Z,43.29
2023-05-19T11:59:30.020Z,43.32
2023-05-19T12:00:29.953Z,43.35
2023-05-19T12:01:29.957Z,43.32
2023-05-19T12:02:30.047Z,43.34
2023-05-19T12:03:30.063Z,43.28
2023-05-19T12:04:29.942Z,43.27
2023-05-19T12:05:29.973Z,43.29
2023-05-19T12:06:30.011Z,43.33
2023-05-19T12:07:29.959Z,43.39
2023-05-19T12:08:29.966Z,43.32
2023-05-19T12:09:29.992Z,43.31
2023-05-19T12:10:30.027Z,43.35
2023-05-19T12:11:30.055Z,43.35
2023-05-19T12:12:30.080Z,43.45
2023-05-19T12:13:30.143Z,43.49
2023-05-19T12:14:30.145Z,43.39
2023-05-19T12:15:30.131Z,43.48
2023-05-19T12:16:31.223Z,43.39
2023-05-19T12:17:30.173Z,43.35
2023-05-19T12:18:30.154Z,43.31
2023-05-19T12:19:30.140Z,43.34
2023-05-19T12:20:30.118Z,43.37
2023-05-19T12:21:34.357Z,43.42
2023-05-19T12:22:30.120Z,43.35
2023-05-19T12:23:30.099Z,43.40
2023-05-19T12:24:30.094Z,43.62
2023-05-19T12:25:30.093Z,43.47
2023-05-19T12:26:30.079Z,43.35
2023-05-19T12:27:30.066Z,43.37
2023-05-19T12:28:30.065Z,43.38
2023-05-19T12:29:30.083Z,43.37
2023-05-19T12:30:30.103Z,43.39
2023-05-19T12:31:30.089Z,43.41
2023-05-19T12:32:30.070Z,43.49
2023-05-19T12:33:30.033Z,43.38
2023-05-19T12:34:30.022Z,43.50
2023-05-19T12:35:30.002Z,43.53
2023-05-19T12:36:30.002Z,43.51
2023-05-19T12:37:30.065Z,43.50
2023-05-19T12:38:29.991Z,43.44
2023-05-19T12:39:29.983Z,43.41
2023-05-19T12:40:30.187Z,43.42
2023-05-19T12:41:29.973Z,43.43
2023-05-19T12:42:29.959Z,43.39
2023-05-19T12:43:29.950Z,43.39
2023-05-19T12:44:29.948Z,43.49
2023-05-19T12:45:30.036Z,43.42
2023-05-19T12:46:30.095Z,43.45
2023-05-19T12:47:29.984Z,43.45
2023-05-19T12:48:29.918Z,43.40
2023-05-19T12:49:29.921Z,43.47
2023-05-19T12:50:29.923Z,43.46
2023-05-19T12:51:29.900Z,43.44
2023-05-19T12:52:29.889Z,43.42